sensor_id;sensor_type;location;lat;lon;timestamp;P1;durP1;ratioP1;P2;durP2;ratioP2
12118;SDS011;6123;48.864;9.200;2022-09-09T00:04:30;5.18;;;3.08;;
12118;SDS011;6123;48.864;9.200;2022-09-09T00:07:03;5.50;;;2.97;;
12118;SDS011;6123;48.864;9.200;2022-09-09T00:09:53;3.10;;;2.38;;
12118;SDS011;6123;48.864;9.200;2022-09-09T00:15:35;4.28;;;2.95;;
12118;SDS011;6123;48.864;9.200;2022-09-09T00:18:14;2.50;;;2.30;;
12118;SDS011;6123;48.864;9.200;2022-09-09T00:20:49;4.75;;;2.28;;
12118;SDS011;6123;48.864;9.200;2022-09-09T00:23:24;3.03;;;2.33;;
12118;SDS011;6123;48.864;9.200;2022-09-09T00:28:54;4.13;;;2.10;;
12118;SDS011;6123;48.864;9.200;2022-09-09T00:31:35;4.57;;;2.40;;
12118;SDS011;6123;48.864;9.200;2022-09-09T00:34:22;2.30;;;2.00;;
12118;SDS011;6123;48.864;9.200;2022-09-09T00:36:52;4.07;;;2.10;;
12118;SDS011;6123;48.864;9.200;2022-09-09T00:42:13;4.15;;;1.95;;
12118;SDS011;6123;48.864;9.200;2022-09-09T00:44:44;3.10;;;2.03;;
12118;SDS011;6123;48.864;9.200;2022-09-09T00:47:36;2.33;;;1.90;;
12118;SDS011;6123;48.864;9.200;2022-09-09T00:58:29;2.38;;;1.60;;
12118;SDS011;6123;48.864;9.200;2022-09-09T01:01:02;4.07;;;1.98;;
12118;SDS011;6123;48.864;9.200;2022-09-09T01:03:37;3.90;;;2.00;;
12118;SDS011;6123;48.864;9.200;2022-09-09T01:06:20;2.97;;;1.92;;
12118;SDS011;6123;48.864;9.200;2022-09-09T01:09:21;3.95;;;1.80;;
12118;SDS011;6123;48.864;9.200;2022-09-09T01:11:56;3.20;;;1.55;;
12118;SDS011;6123;48.864;9.200;2022-09-09T01:15:12;3.38;;;2.17;;
12118;SDS011;6123;48.864;9.200;2022-09-09T01:20:37;1.70;;;1.40;;
12118;SDS011;6123;48.864;9.200;2022-09-09T01:28:46;2.45;;;1.65;;
12118;SDS011;6123;48.864;9.200;2022-09-09T01:31:17;2.92;;;1.60;;
12118;SDS011;6123;48.864;9.200;2022-09-09T01:33:57;2.85;;;1.60;;
12118;SDS011;6123;48.864;9.200;2022-09-09T01:36:32;1.95;;;1.35;;
12118;SDS011;6123;48.864;9.200;2022-09-09T01:39:04;2.08;;;1.55;;
12118;SDS011;6123;48.864;9.200;2022-09-09T01:41:29;1.60;;;1.45;;
12118;SDS011;6123;48.864;9.200;2022-09-09T01:43:55;2.95;;;1.75;;
12118;SDS011;6123;48.864;9.200;2022-09-09T01:46:22;2.45;;;2.03;;
12118;SDS011;6123;48.864;9.200;2022-09-09T01:48:52;4.65;;;2.00;;
12118;SDS011;6123;48.864;9.200;2022-09-09T01:51:19;2.63;;;1.65;;
12118;SDS011;6123;48.864;9.200;2022-09-09T01:53:45;2.55;;;1.92;;
12118;SDS011;6123;48.864;9.200;2022-09-09T01:56:21;3.35;;;2.03;;
12118;SDS011;6123;48.864;9.200;2022-09-09T01:59:03;3.75;;;1.83;;
12118;SDS011;6123;48.864;9.200;2022-09-09T02:04:08;2.95;;;1.77;;
12118;SDS011;6123;48.864;9.200;2022-09-09T02:06:57;3.65;;;1.73;;
12118;SDS011;6123;48.864;9.200;2022-09-09T02:09:24;2.92;;;1.92;;
12118;SDS011;6123;48.864;9.200;2022-09-09T02:12:02;2.20;;;1.70;;
12118;SDS011;6123;48.864;9.200;2022-09-09T02:14:36;2.60;;;1.70;;
12118;SDS011;6123;48.864;9.200;2022-09-09T02:17:08;3.28;;;1.67;;
12118;SDS011;6123;48.864;9.200;2022-09-09T02:19:45;2.30;;;1.50;;
12118;SDS011;6123;48.864;9.200;2022-09-09T02:22:16;4.95;;;2.00;;
12118;SDS011;6123;48.864;9.200;2022-09-09T02:24:45;2.22;;;1.45;;
12118;SDS011;6123;48.864;9.200;2022-09-09T02:27:12;3.17;;;1.75;;
12118;SDS011;6123;48.864;9.200;2022-09-09T02:29:41;2.17;;;1.35;;
12118;SDS011;6123;48.864;9.200;2022-09-09T02:32:12;1.45;;;1.30;;
12118;SDS011;6123;48.864;9.200;2022-09-09T02:34:44;2.60;;;1.70;;
12118;SDS011;6123;48.864;9.200;2022-09-09T02:37:14;3.42;;;1.88;;
12118;SDS011;6123;48.864;9.200;2022-09-09T02:39:46;2.50;;;1.60;;
12118;SDS011;6123;48.864;9.200;2022-09-09T02:42:12;3.38;;;1.75;;
12118;SDS011;6123;48.864;9.200;2022-09-09T02:44:39;3.08;;;1.30;;
12118;SDS011;6123;48.864;9.200;2022-09-09T02:47:16;2.15;;;1.13;;
12118;SDS011;6123;48.864;9.200;2022-09-09T02:50:13;2.20;;;1.50;;
12118;SDS011;6123;48.864;9.200;2022-09-09T02:55:29;1.50;;;1.13;;
12118;SDS011;6123;48.864;9.200;2022-09-09T02:58:03;2.38;;;1.33;;
12118;SDS011;6123;48.864;9.200;2022-09-09T03:00:32;1.42;;;1.33;;
12118;SDS011;6123;48.864;9.200;2022-09-09T03:03:00;2.25;;;1.30;;
12118;SDS011;6123;48.864;9.200;2022-09-09T03:05:29;1.92;;;1.30;;
12118;SDS011;6123;48.864;9.200;2022-09-09T03:07:57;1.52;;;1.30;;
12118;SDS011;6123;48.864;9.200;2022-09-09T03:10:23;3.92;;;1.52;;
12118;SDS011;6123;48.864;9.200;2022-09-09T03:12:51;2.72;;;1.50;;
12118;SDS011;6123;48.864;9.200;2022-09-09T03:15:20;2.63;;;1.80;;
12118;SDS011;6123;48.864;9.200;2022-09-09T03:17:48;2.72;;;1.67;;
12118;SDS011;6123;48.864;9.200;2022-09-09T03:20:14;2.58;;;1.58;;
12118;SDS011;6123;48.864;9.200;2022-09-09T03:22:39;2.42;;;1.42;;
12118;SDS011;6123;48.864;9.200;2022-09-09T03:25:05;1.83;;;1.60;;
12118;SDS011;6123;48.864;9.200;2022-09-09T03:27:31;2.25;;;1.60;;
12118;SDS011;6123;48.864;9.200;2022-09-09T03:30:00;3.83;;;2.00;;
12118;SDS011;6123;48.864;9.200;2022-09-09T03:32:28;2.38;;;1.70;;
12118;SDS011;6123;48.864;9.200;2022-09-09T03:34:56;3.40;;;1.92;;
12118;SDS011;6123;48.864;9.200;2022-09-09T03:37:21;2.55;;;1.88;;
12118;SDS011;6123;48.864;9.200;2022-09-09T03:39:47;3.45;;;2.22;;
12118;SDS011;6123;48.864;9.200;2022-09-09T03:42:13;2.50;;;1.70;;
12118;SDS011;6123;48.864;9.200;2022-09-09T03:44:41;3.85;;;1.88;;
12118;SDS011;6123;48.864;9.200;2022-09-09T03:47:07;2.97;;;2.15;;
12118;SDS011;6123;48.864;9.200;2022-09-09T03:49:33;3.38;;;1.80;;
12118;SDS011;6123;48.864;9.200;2022-09-09T03:52:01;5.90;;;2.10;;
12118;SDS011;6123;48.864;9.200;2022-09-09T03:54:29;4.03;;;2.08;;
12118;SDS011;6123;48.864;9.200;2022-09-09T03:56:57;4.65;;;2.33;;
12118;SDS011;6123;48.864;9.200;2022-09-09T03:59:22;4.45;;;2.50;;
12118;SDS011;6123;48.864;9.200;2022-09-09T04:01:51;3.88;;;2.10;;
12118;SDS011;6123;48.864;9.200;2022-09-09T04:04:19;4.13;;;1.90;;
12118;SDS011;6123;48.864;9.200;2022-09-09T04:06:48;5.00;;;2.30;;
12118;SDS011;6123;48.864;9.200;2022-09-09T04:09:14;3.63;;;2.05;;
12118;SDS011;6123;48.864;9.200;2022-09-09T04:11:40;4.78;;;2.35;;
12118;SDS011;6123;48.864;9.200;2022-09-09T04:14:08;4.32;;;2.08;;
12118;SDS011;6123;48.864;9.200;2022-09-09T04:16:33;2.67;;;2.22;;
12118;SDS011;6123;48.864;9.200;2022-09-09T04:19:01;3.20;;;2.35;;
12118;SDS011;6123;48.864;9.200;2022-09-09T04:21:29;4.70;;;2.38;;
12118;SDS011;6123;48.864;9.200;2022-09-09T04:23:55;3.35;;;2.30;;
12118;SDS011;6123;48.864;9.200;2022-09-09T04:26:21;2.80;;;2.08;;
12118;SDS011;6123;48.864;9.200;2022-09-09T04:28:47;3.60;;;2.20;;
12118;SDS011;6123;48.864;9.200;2022-09-09T04:31:17;3.28;;;2.00;;
12118;SDS011;6123;48.864;9.200;2022-09-09T04:33:45;4.15;;;2.00;;
12118;SDS011;6123;48.864;9.200;2022-09-09T04:36:11;3.78;;;2.00;;
12118;SDS011;6123;48.864;9.200;2022-09-09T04:38:37;5.20;;;2.35;;
12118;SDS011;6123;48.864;9.200;2022-09-09T04:41:03;2.30;;;1.77;;
12118;SDS011;6123;48.864;9.200;2022-09-09T04:43:30;4.10;;;2.03;;
12118;SDS011;6123;48.864;9.200;2022-09-09T04:45:55;4.20;;;2.08;;
12118;SDS011;6123;48.864;9.200;2022-09-09T04:48:21;3.72;;;1.50;;
12118;SDS011;6123;48.864;9.200;2022-09-09T04:50:57;3.42;;;2.25;;
12118;SDS011;6123;48.864;9.200;2022-09-09T04:53:24;3.97;;;2.10;;
12118;SDS011;6123;48.864;9.200;2022-09-09T04:55:51;5.00;;;1.98;;
12118;SDS011;6123;48.864;9.200;2022-09-09T04:58:26;3.60;;;2.00;;
12118;SDS011;6123;48.864;9.200;2022-09-09T05:00:51;4.13;;;2.10;;
12118;SDS011;6123;48.864;9.200;2022-09-09T05:03:17;4.55;;;2.20;;
12118;SDS011;6123;48.864;9.200;2022-09-09T05:05:44;2.92;;;1.83;;
12118;SDS011;6123;48.864;9.200;2022-09-09T05:08:10;2.53;;;1.65;;
12118;SDS011;6123;48.864;9.200;2022-09-09T05:10:36;3.65;;;2.10;;
12118;SDS011;6123;48.864;9.200;2022-09-09T05:13:03;3.15;;;1.95;;
12118;SDS011;6123;48.864;9.200;2022-09-09T05:15:32;3.75;;;1.65;;
12118;SDS011;6123;48.864;9.200;2022-09-09T05:17:58;3.75;;;1.83;;
12118;SDS011;6123;48.864;9.200;2022-09-09T05:20:26;3.30;;;1.90;;
12118;SDS011;6123;48.864;9.200;2022-09-09T05:22:53;3.08;;;1.50;;
12118;SDS011;6123;48.864;9.200;2022-09-09T05:25:19;3.42;;;1.73;;
12118;SDS011;6123;48.864;9.200;2022-09-09T05:27:45;3.97;;;2.30;;
12118;SDS011;6123;48.864;9.200;2022-09-09T05:30:10;4.63;;;2.03;;
12118;SDS011;6123;48.864;9.200;2022-09-09T05:32:36;3.95;;;1.73;;
12118;SDS011;6123;48.864;9.200;2022-09-09T05:35:05;5.03;;;1.85;;
12118;SDS011;6123;48.864;9.200;2022-09-09T05:37:31;2.53;;;1.77;;
12118;SDS011;6123;48.864;9.200;2022-09-09T05:39:57;2.20;;;1.52;;
12118;SDS011;6123;48.864;9.200;2022-09-09T05:42:23;3.50;;;1.65;;
12118;SDS011;6123;48.864;9.200;2022-09-09T05:44:54;4.80;;;1.92;;
12118;SDS011;6123;48.864;9.200;2022-09-09T05:47:19;3.45;;;1.80;;
12118;SDS011;6123;48.864;9.200;2022-09-09T05:49:47;3.05;;;1.80;;
12118;SDS011;6123;48.864;9.200;2022-09-09T05:52:14;4.22;;;1.98;;
12118;SDS011;6123;48.864;9.200;2022-09-09T05:54:42;3.10;;;1.70;;
12118;SDS011;6123;48.864;9.200;2022-09-09T05:57:10;4.40;;;2.08;;
12118;SDS011;6123;48.864;9.200;2022-09-09T05:59:35;3.60;;;1.83;;
12118;SDS011;6123;48.864;9.200;2022-09-09T06:02:03;2.63;;;1.77;;
12118;SDS011;6123;48.864;9.200;2022-09-09T06:04:29;4.10;;;1.67;;
12118;SDS011;6123;48.864;9.200;2022-09-09T06:06:55;2.58;;;1.63;;
12118;SDS011;6123;48.864;9.200;2022-09-09T06:09:21;4.78;;;2.08;;
12118;SDS011;6123;48.864;9.200;2022-09-09T06:11:46;3.53;;;1.63;;
12118;SDS011;6123;48.864;9.200;2022-09-09T06:14:12;2.38;;;1.67;;
12118;SDS011;6123;48.864;9.200;2022-09-09T06:16:40;5.53;;;1.85;;
12118;SDS011;6123;48.864;9.200;2022-09-09T06:19:09;3.78;;;1.80;;
12118;SDS011;6123;48.864;9.200;2022-09-09T06:21:35;3.13;;;1.60;;
12118;SDS011;6123;48.864;9.200;2022-09-09T06:24:02;5.35;;;1.90;;
12118;SDS011;6123;48.864;9.200;2022-09-09T06:26:32;3.83;;;1.98;;
12118;SDS011;6123;48.864;9.200;2022-09-09T06:29:04;2.67;;;1.60;;
12118;SDS011;6123;48.864;9.200;2022-09-09T06:31:31;3.58;;;1.65;;
12118;SDS011;6123;48.864;9.200;2022-09-09T06:33:59;3.05;;;1.60;;
12118;SDS011;6123;48.864;9.200;2022-09-09T06:39:02;3.53;;;1.95;;
12118;SDS011;6123;48.864;9.200;2022-09-09T06:41:28;2.80;;;1.92;;
12118;SDS011;6123;48.864;9.200;2022-09-09T06:43:55;2.15;;;1.55;;
12118;SDS011;6123;48.864;9.200;2022-09-09T06:46:22;3.08;;;1.90;;
12118;SDS011;6123;48.864;9.200;2022-09-09T06:48:52;5.28;;;1.73;;
12118;SDS011;6123;48.864;9.200;2022-09-09T06:51:20;3.35;;;1.50;;
12118;SDS011;6123;48.864;9.200;2022-09-09T06:53:47;4.95;;;2.00;;
12118;SDS011;6123;48.864;9.200;2022-09-09T06:58:43;4.85;;;1.92;;
12118;SDS011;6123;48.864;9.200;2022-09-09T07:01:11;3.22;;;1.77;;
12118;SDS011;6123;48.864;9.200;2022-09-09T07:03:38;2.60;;;1.63;;
12118;SDS011;6123;48.864;9.200;2022-09-09T07:06:04;3.17;;;1.85;;
12118;SDS011;6123;48.864;9.200;2022-09-09T07:08:33;4.13;;;1.80;;
12118;SDS011;6123;48.864;9.200;2022-09-09T07:11:02;3.00;;;1.80;;
12118;SDS011;6123;48.864;9.200;2022-09-09T07:13:34;2.33;;;1.50;;
12118;SDS011;6123;48.864;9.200;2022-09-09T07:16:03;3.83;;;1.58;;
12118;SDS011;6123;48.864;9.200;2022-09-09T07:18:30;3.00;;;1.42;;
12118;SDS011;6123;48.864;9.200;2022-09-09T07:20:56;2.38;;;1.65;;
12118;SDS011;6123;48.864;9.200;2022-09-09T07:23:22;1.60;;;1.50;;
12118;SDS011;6123;48.864;9.200;2022-09-09T07:25:49;2.60;;;1.30;;
12118;SDS011;6123;48.864;9.200;2022-09-09T07:28:15;4.35;;;1.88;;
12118;SDS011;6123;48.864;9.200;2022-09-09T07:30:45;2.75;;;1.55;;
12118;SDS011;6123;48.864;9.200;2022-09-09T07:33:22;2.97;;;1.17;;
12118;SDS011;6123;48.864;9.200;2022-09-09T07:35:48;2.55;;;1.35;;
12118;SDS011;6123;48.864;9.200;2022-09-09T07:38:15;1.73;;;1.30;;
12118;SDS011;6123;48.864;9.200;2022-09-09T07:40:41;1.77;;;1.45;;
12118;SDS011;6123;48.864;9.200;2022-09-09T07:43:07;2.40;;;1.60;;
12118;SDS011;6123;48.864;9.200;2022-09-09T07:45:34;5.18;;;1.73;;
12118;SDS011;6123;48.864;9.200;2022-09-09T07:48:02;2.47;;;1.38;;
12118;SDS011;6123;48.864;9.200;2022-09-09T07:50:28;3.65;;;1.77;;
12118;SDS011;6123;48.864;9.200;2022-09-09T07:52:55;2.85;;;1.60;;
12118;SDS011;6123;48.864;9.200;2022-09-09T07:55:21;1.73;;;1.40;;
12118;SDS011;6123;48.864;9.200;2022-09-09T07:57:50;3.45;;;1.85;;
12118;SDS011;6123;48.864;9.200;2022-09-09T08:00:16;3.20;;;1.60;;
12118;SDS011;6123;48.864;9.200;2022-09-09T08:02:41;2.45;;;1.10;;
12118;SDS011;6123;48.864;9.200;2022-09-09T08:05:07;1.98;;;1.38;;
12118;SDS011;6123;48.864;9.200;2022-09-09T08:07:35;2.38;;;1.48;;
12118;SDS011;6123;48.864;9.200;2022-09-09T08:10:01;3.15;;;1.48;;
12118;SDS011;6123;48.864;9.200;2022-09-09T08:12:28;2.53;;;1.30;;
12118;SDS011;6123;48.864;9.200;2022-09-09T08:14:54;1.88;;;1.23;;
12118;SDS011;6123;48.864;9.200;2022-09-09T08:17:19;1.92;;;1.08;;
12118;SDS011;6123;48.864;9.200;2022-09-09T08:19:45;2.35;;;1.33;;
12118;SDS011;6123;48.864;9.200;2022-09-09T08:22:13;2.25;;;1.30;;
12118;SDS011;6123;48.864;9.200;2022-09-09T08:24:38;2.30;;;1.40;;
12118;SDS011;6123;48.864;9.200;2022-09-09T08:27:04;1.42;;;1.00;;
12118;SDS011;6123;48.864;9.200;2022-09-09T08:29:30;2.58;;;1.20;;
12118;SDS011;6123;48.864;9.200;2022-09-09T08:31:58;4.95;;;1.52;;
12118;SDS011;6123;48.864;9.200;2022-09-09T08:34:27;4.63;;;1.27;;
12118;SDS011;6123;48.864;9.200;2022-09-09T08:36:53;3.40;;;1.83;;
12118;SDS011;6123;48.864;9.200;2022-09-09T08:39:20;3.05;;;1.38;;
12118;SDS011;6123;48.864;9.200;2022-09-09T08:44:18;5.10;;;1.40;;
12118;SDS011;6123;48.864;9.200;2022-09-09T08:51:45;2.65;;;1.42;;
12118;SDS011;6123;48.864;9.200;2022-09-09T08:54:12;1.98;;;1.15;;
12118;SDS011;6123;48.864;9.200;2022-09-09T08:56:38;1.65;;;1.05;;
12118;SDS011;6123;48.864;9.200;2022-09-09T08:59:04;3.88;;;1.23;;
12118;SDS011;6123;48.864;9.200;2022-09-09T09:09:50;3.20;;;1.30;;
12118;SDS011;6123;48.864;9.200;2022-09-09T09:12:44;3.67;;;1.10;;
12118;SDS011;6123;48.864;9.200;2022-09-09T09:15:35;3.08;;;1.15;;
12118;SDS011;6123;48.864;9.200;2022-09-09T09:18:01;2.63;;;1.40;;
12118;SDS011;6123;48.864;9.200;2022-09-09T09:23:24;4.05;;;1.05;;
12118;SDS011;6123;48.864;9.200;2022-09-09T09:25:56;3.33;;;1.23;;
12118;SDS011;6123;48.864;9.200;2022-09-09T09:28:26;2.78;;;1.15;;
12118;SDS011;6123;48.864;9.200;2022-09-09T09:31:08;2.58;;;1.13;;
12118;SDS011;6123;48.864;9.200;2022-09-09T09:36:18;2.80;;;1.13;;
12118;SDS011;6123;48.864;9.200;2022-09-09T09:41:32;3.85;;;1.15;;
12118;SDS011;6123;48.864;9.200;2022-09-09T09:44:00;2.78;;;1.33;;
12118;SDS011;6123;48.864;9.200;2022-09-09T09:46:27;1.80;;;1.15;;
12118;SDS011;6123;48.864;9.200;2022-09-09T09:48:56;3.42;;;1.20;;
12118;SDS011;6123;48.864;9.200;2022-09-09T09:51:33;5.68;;;1.50;;
12118;SDS011;6123;48.864;9.200;2022-09-09T09:56:40;1.95;;;1.15;;
12118;SDS011;6123;48.864;9.200;2022-09-09T10:02:14;2.58;;;1.10;;
12118;SDS011;6123;48.864;9.200;2022-09-09T10:04:42;2.10;;;0.90;;
12118;SDS011;6123;48.864;9.200;2022-09-09T10:07:15;2.13;;;1.17;;
12118;SDS011;6123;48.864;9.200;2022-09-09T10:09:55;2.60;;;1.30;;
12118;SDS011;6123;48.864;9.200;2022-09-09T10:26:02;1.67;;;0.90;;
12118;SDS011;6123;48.864;9.200;2022-09-09T10:28:40;1.13;;;0.88;;
12118;SDS011;6123;48.864;9.200;2022-09-09T10:32:06;2.70;;;1.23;;
12118;SDS011;6123;48.864;9.200;2022-09-09T10:37:44;1.50;;;1.17;;
12118;SDS011;6123;48.864;9.200;2022-09-09T10:40:32;2.45;;;1.00;;
12118;SDS011;6123;48.864;9.200;2022-09-09T10:46:26;2.92;;;1.23;;
12118;SDS011;6123;48.864;9.200;2022-09-09T10:52:20;3.15;;;1.20;;
12118;SDS011;6123;48.864;9.200;2022-09-09T10:55:08;1.85;;;1.15;;
12118;SDS011;6123;48.864;9.200;2022-09-09T10:57:43;2.55;;;1.10;;
12118;SDS011;6123;48.864;9.200;2022-09-09T11:00:18;3.08;;;1.40;;
12118;SDS011;6123;48.864;9.200;2022-09-09T11:02:48;3.28;;;1.30;;
12118;SDS011;6123;48.864;9.200;2022-09-09T11:05:27;2.00;;;0.93;;
12118;SDS011;6123;48.864;9.200;2022-09-09T11:08:12;2.63;;;0.95;;
12118;SDS011;6123;48.864;9.200;2022-09-09T11:13:22;5.82;;;1.40;;
12118;SDS011;6123;48.864;9.200;2022-09-09T11:16:10;8.73;;;1.58;;
12118;SDS011;6123;48.864;9.200;2022-09-09T11:18:39;2.88;;;1.30;;
12118;SDS011;6123;48.864;9.200;2022-09-09T11:21:12;13.95;;;1.98;;
12118;SDS011;6123;48.864;9.200;2022-09-09T11:23:45;6.35;;;1.85;;
12118;SDS011;6123;48.864;9.200;2022-09-09T11:26:35;4.05;;;1.52;;
12118;SDS011;6123;48.864;9.200;2022-09-09T11:29:13;4.50;;;2.05;;
12118;SDS011;6123;48.864;9.200;2022-09-09T11:32:12;4.43;;;1.55;;
12118;SDS011;6123;48.864;9.200;2022-09-09T11:34:51;2.78;;;1.35;;
12118;SDS011;6123;48.864;9.200;2022-09-09T11:40:24;6.65;;;1.33;;
12118;SDS011;6123;48.864;9.200;2022-09-09T11:43:15;3.38;;;1.10;;
12118;SDS011;6123;48.864;9.200;2022-09-09T11:45:50;5.80;;;1.77;;
12118;SDS011;6123;48.864;9.200;2022-09-09T11:48:25;3.30;;;1.30;;
12118;SDS011;6123;48.864;9.200;2022-09-09T11:51:03;2.55;;;1.15;;
12118;SDS011;6123;48.864;9.200;2022-09-09T11:53:34;3.25;;;1.70;;
12118;SDS011;6123;48.864;9.200;2022-09-09T11:56:13;0.85;;;0.68;;
12118;SDS011;6123;48.864;9.200;2022-09-09T11:59:04;2.83;;;0.77;;
12118;SDS011;6123;48.864;9.200;2022-09-09T12:01:44;2.17;;;0.85;;
12118;SDS011;6123;48.864;9.200;2022-09-09T12:07:01;0.90;;;0.60;;
12118;SDS011;6123;48.864;9.200;2022-09-09T12:15:00;1.10;;;0.77;;
12118;SDS011;6123;48.864;9.200;2022-09-09T12:17:49;1.17;;;0.50;;
12118;SDS011;6123;48.864;9.200;2022-09-09T12:25:35;1.25;;;0.80;;
12118;SDS011;6123;48.864;9.200;2022-09-09T12:31:08;0.90;;;0.65;;
12118;SDS011;6123;48.864;9.200;2022-09-09T12:33:43;0.90;;;0.65;;
12118;SDS011;6123;48.864;9.200;2022-09-09T12:36:18;0.77;;;0.50;;
12118;SDS011;6123;48.864;9.200;2022-09-09T12:39:24;1.30;;;0.85;;
12118;SDS011;6123;48.864;9.200;2022-09-09T12:42:01;0.77;;;0.70;;
12118;SDS011;6123;48.864;9.200;2022-09-09T12:44:31;2.50;;;0.57;;
12118;SDS011;6123;48.864;9.200;2022-09-09T12:46:58;2.58;;;1.05;;
12118;SDS011;6123;48.864;9.200;2022-09-09T12:49:37;2.10;;;0.70;;
12118;SDS011;6123;48.864;9.200;2022-09-09T12:52:07;2.17;;;0.68;;
12118;SDS011;6123;48.864;9.200;2022-09-09T12:54:55;1.50;;;0.73;;
12118;SDS011;6123;48.864;9.200;2022-09-09T12:57:22;1.55;;;0.85;;
12118;SDS011;6123;48.864;9.200;2022-09-09T12:59:50;1.40;;;0.50;;
12118;SDS011;6123;48.864;9.200;2022-09-09T13:02:24;1.23;;;0.80;;
12118;SDS011;6123;48.864;9.200;2022-09-09T13:04:55;0.73;;;0.70;;
12118;SDS011;6123;48.864;9.200;2022-09-09T13:07:38;2.28;;;0.88;;
12118;SDS011;6123;48.864;9.200;2022-09-09T13:10:04;3.92;;;0.55;;
12118;SDS011;6123;48.864;9.200;2022-09-09T13:12:29;0.98;;;0.70;;
12118;SDS011;6123;48.864;9.200;2022-09-09T13:14:55;1.52;;;0.70;;
12118;SDS011;6123;48.864;9.200;2022-09-09T13:17:24;2.47;;;0.98;;
12118;SDS011;6123;48.864;9.200;2022-09-09T13:19:53;4.57;;;1.08;;
12118;SDS011;6123;48.864;9.200;2022-09-09T13:22:30;1.15;;;1.00;;
12118;SDS011;6123;48.864;9.200;2022-09-09T13:25:03;1.63;;;0.80;;
12118;SDS011;6123;48.864;9.200;2022-09-09T13:27:37;1.17;;;0.73;;
12118;SDS011;6123;48.864;9.200;2022-09-09T13:30:19;1.77;;;0.82;;
12118;SDS011;6123;48.864;9.200;2022-09-09T13:32:47;1.65;;;1.05;;
12118;SDS011;6123;48.864;9.200;2022-09-09T13:35:28;1.17;;;0.52;;
12118;SDS011;6123;48.864;9.200;2022-09-09T13:37:54;2.25;;;0.82;;
12118;SDS011;6123;48.864;9.200;2022-09-09T13:40:22;2.78;;;1.13;;
12118;SDS011;6123;48.864;9.200;2022-09-09T13:42:52;1.80;;;1.45;;
12118;SDS011;6123;48.864;9.200;2022-09-09T13:45:22;1.60;;;0.82;;
12118;SDS011;6123;48.864;9.200;2022-09-09T13:47:52;1.83;;;0.95;;
12118;SDS011;6123;48.864;9.200;2022-09-09T13:52:54;3.50;;;0.80;;
12118;SDS011;6123;48.864;9.200;2022-09-09T13:55:24;0.98;;;0.57;;
12118;SDS011;6123;48.864;9.200;2022-09-09T13:57:52;1.55;;;0.80;;
12118;SDS011;6123;48.864;9.200;2022-09-09T14:00:20;2.65;;;0.88;;
12118;SDS011;6123;48.864;9.200;2022-09-09T14:02:47;1.77;;;1.00;;
12118;SDS011;6123;48.864;9.200;2022-09-09T14:05:16;1.02;;;0.93;;
12118;SDS011;6123;48.864;9.200;2022-09-09T14:07:43;2.03;;;0.70;;
12118;SDS011;6123;48.864;9.200;2022-09-09T14:10:10;1.48;;;0.90;;
12118;SDS011;6123;48.864;9.200;2022-09-09T14:12:36;1.10;;;0.77;;
12118;SDS011;6123;48.864;9.200;2022-09-09T14:15:07;2.53;;;1.15;;
12118;SDS011;6123;48.864;9.200;2022-09-09T14:17:35;2.35;;;1.00;;
12118;SDS011;6123;48.864;9.200;2022-09-09T14:20:04;1.95;;;0.93;;
12118;SDS011;6123;48.864;9.200;2022-09-09T14:22:34;2.03;;;0.90;;
12118;SDS011;6123;48.864;9.200;2022-09-09T14:25:04;1.75;;;0.77;;
12118;SDS011;6123;48.864;9.200;2022-09-09T14:27:31;2.17;;;0.73;;
12118;SDS011;6123;48.864;9.200;2022-09-09T14:29:57;2.92;;;0.90;;
12118;SDS011;6123;48.864;9.200;2022-09-09T14:32:24;2.25;;;0.88;;
12118;SDS011;6123;48.864;9.200;2022-09-09T14:34:50;1.10;;;0.90;;
12118;SDS011;6123;48.864;9.200;2022-09-09T14:37:16;0.93;;;0.73;;
12118;SDS011;6123;48.864;9.200;2022-09-09T14:39:43;0.82;;;0.80;;
12118;SDS011;6123;48.864;9.200;2022-09-09T14:42:10;2.20;;;0.85;;
12118;SDS011;6123;48.864;9.200;2022-09-09T14:44:36;1.00;;;0.75;;
12118;SDS011;6123;48.864;9.200;2022-09-09T14:47:03;1.67;;;0.90;;
12118;SDS011;6123;48.864;9.200;2022-09-09T14:49:35;1.05;;;0.52;;
12118;SDS011;6123;48.864;9.200;2022-09-09T14:52:02;2.50;;;1.02;;
12118;SDS011;6123;48.864;9.200;2022-09-09T14:54:31;1.40;;;0.80;;
12118;SDS011;6123;48.864;9.200;2022-09-09T14:56:57;1.10;;;0.85;;
12118;SDS011;6123;48.864;9.200;2022-09-09T14:59:23;1.10;;;0.90;;
12118;SDS011;6123;48.864;9.200;2022-09-09T15:01:51;2.30;;;1.10;;
12118;SDS011;6123;48.864;9.200;2022-09-09T15:04:19;2.05;;;0.90;;
12118;SDS011;6123;48.864;9.200;2022-09-09T15:06:45;1.80;;;0.88;;
12118;SDS011;6123;48.864;9.200;2022-09-09T15:09:13;1.48;;;0.70;;
12118;SDS011;6123;48.864;9.200;2022-09-09T15:11:39;0.90;;;0.68;;
12118;SDS011;6123;48.864;9.200;2022-09-09T15:14:06;2.22;;;0.70;;
12118;SDS011;6123;48.864;9.200;2022-09-09T15:16:33;0.63;;;0.60;;
12118;SDS011;6123;48.864;9.200;2022-09-09T15:18:59;0.47;;;0.45;;
12118;SDS011;6123;48.864;9.200;2022-09-09T15:21:27;1.65;;;0.88;;
12118;SDS011;6123;48.864;9.200;2022-09-09T15:23:59;0.57;;;0.45;;
12118;SDS011;6123;48.864;9.200;2022-09-09T15:26:26;1.73;;;0.68;;
12118;SDS011;6123;48.864;9.200;2022-09-09T15:28:57;0.50;;;0.50;;
12118;SDS011;6123;48.864;9.200;2022-09-09T15:31:25;0.90;;;0.52;;
12118;SDS011;6123;48.864;9.200;2022-09-09T15:33:59;0.88;;;0.70;;
12118;SDS011;6123;48.864;9.200;2022-09-09T15:36:28;2.72;;;0.75;;
12118;SDS011;6123;48.864;9.200;2022-09-09T15:38:55;0.80;;;0.70;;
12118;SDS011;6123;48.864;9.200;2022-09-09T15:41:21;1.65;;;0.82;;
12118;SDS011;6123;48.864;9.200;2022-09-09T15:43:48;1.33;;;0.77;;
12118;SDS011;6123;48.864;9.200;2022-09-09T15:48:42;1.13;;;0.77;;
12118;SDS011;6123;48.864;9.200;2022-09-09T15:51:11;0.60;;;0.60;;
12118;SDS011;6123;48.864;9.200;2022-09-09T15:53:39;2.25;;;1.00;;
12118;SDS011;6123;48.864;9.200;2022-09-09T15:56:05;1.45;;;0.70;;
12118;SDS011;6123;48.864;9.200;2022-09-09T15:58:34;1.33;;;0.50;;
12118;SDS011;6123;48.864;9.200;2022-09-09T16:01:07;2.38;;;1.23;;
12118;SDS011;6123;48.864;9.200;2022-09-09T16:03:39;1.35;;;0.52;;
12118;SDS011;6123;48.864;9.200;2022-09-09T16:06:11;2.08;;;1.08;;
12118;SDS011;6123;48.864;9.200;2022-09-09T16:08:38;1.63;;;0.85;;
12118;SDS011;6123;48.864;9.200;2022-09-09T16:13:34;1.30;;;0.68;;
12118;SDS011;6123;48.864;9.200;2022-09-09T16:16:04;1.17;;;0.80;;
12118;SDS011;6123;48.864;9.200;2022-09-09T16:18:36;2.80;;;1.15;;
12118;SDS011;6123;48.864;9.200;2022-09-09T16:21:11;1.73;;;1.20;;
12118;SDS011;6123;48.864;9.200;2022-09-09T16:23:46;1.30;;;0.93;;
12118;SDS011;6123;48.864;9.200;2022-09-09T16:26:14;4.40;;;0.88;;
12118;SDS011;6123;48.864;9.200;2022-09-09T16:28:41;2.70;;;0.80;;
12118;SDS011;6123;48.864;9.200;2022-09-09T16:31:08;3.10;;;0.43;;
12118;SDS011;6123;48.864;9.200;2022-09-09T16:33:39;3.00;;;0.40;;
12118;SDS011;6123;48.864;9.200;2022-09-09T16:36:08;1.80;;;0.63;;
12118;SDS011;6123;48.864;9.200;2022-09-09T16:38:36;3.08;;;0.60;;
12118;SDS011;6123;48.864;9.200;2022-09-09T16:41:03;2.30;;;0.85;;
12118;SDS011;6123;48.864;9.200;2022-09-09T16:43:31;3.30;;;0.70;;
12118;SDS011;6123;48.864;9.200;2022-09-09T16:46:03;3.55;;;0.50;;
12118;SDS011;6123;48.864;9.200;2022-09-09T16:48:36;3.15;;;0.70;;
12118;SDS011;6123;48.864;9.200;2022-09-09T16:51:05;2.05;;;0.60;;
12118;SDS011;6123;48.864;9.200;2022-09-09T16:53:32;1.60;;;0.70;;
12118;SDS011;6123;48.864;9.200;2022-09-09T16:55:58;1.42;;;0.60;;
12118;SDS011;6123;48.864;9.200;2022-09-09T16:58:31;2.95;;;0.65;;
12118;SDS011;6123;48.864;9.200;2022-09-09T17:01:00;2.47;;;0.68;;
12118;SDS011;6123;48.864;9.200;2022-09-09T17:03:29;0.63;;;0.40;;
12118;SDS011;6123;48.864;9.200;2022-09-09T17:05:56;1.00;;;0.80;;
12118;SDS011;6123;48.864;9.200;2022-09-09T17:08:23;0.73;;;0.52;;
12118;SDS011;6123;48.864;9.200;2022-09-09T17:10:49;1.85;;;0.40;;
12118;SDS011;6123;48.864;9.200;2022-09-09T17:13:15;0.45;;;0.38;;
12118;SDS011;6123;48.864;9.200;2022-09-09T17:15:43;3.00;;;0.50;;
12118;SDS011;6123;48.864;9.200;2022-09-09T17:18:09;1.73;;;0.57;;
12118;SDS011;6123;48.864;9.200;2022-09-09T17:20:38;0.55;;;0.50;;
12118;SDS011;6123;48.864;9.200;2022-09-09T17:23:05;0.95;;;0.43;;